Time;durP1;ratioP1;P1;durP2;ratioP2;P2;SDS_P1;SDS_P2;PMS_P1;PMS_P2;Temp;Humidity;BMP_temperature;BMP_pressure;BME280_temperature;BME280_humidity;BME280_pressure;Samples;Min_cycle;Max_cycle;Signal;HPM_P1;HPM_P2
2023/12/03 00:00:03;;;;;;;56.17;23.48;;;;;;;;;;5020747;28;93464;-62
2023/12/03 00:02:29;;;;;;;68.93;22.40;;;;;;;;;;5022413;27;92559;-62
2023/12/03 00:04:57;;;;;;;63.45;23.17;;;;;;;;;;5020486;28;93087;-61
2023/12/03 00:07:24;;;;;;;51.90;22.05;;;;;;;;;;5022771;27;94289;-61
2023/12/03 00:09:50;;;;;;;56.90;22.58;;;;;;;;;;5019808;28;92699;-61
2023/12/03 00:12:17;;;;;;;57.15;23.13;;;;;;;;;;5022820;28;92995;-62
2023/12/03 00:14:43;;;;;;;50.40;22.10;;;;;;;;;;5020194;27;95023;-62
2023/12/03 00:17:10;;;;;;;54.80;23.58;;;;;;;;;;5026842;28;96596;-61
2023/12/03 00:19:36;;;;;;;51.78;22.65;;;;;;;;;;5024712;27;93934;-66
2023/12/03 00:22:03;;;;;;;48.13;22.02;;;;;;;;;;5022851;28;92567;-62
2023/12/03 00:24:29;;;;;;;66.68;21.33;;;;;;;;;;5022508;28;92443;-62
2023/12/03 00:26:56;;;;;;;59.28;24.20;;;;;;;;;;5022204;28;93408;-62
2023/12/03 00:29:22;;;;;;;59.42;23.40;;;;;;;;;;5022154;27;92503;-66
2023/12/03 00:31:49;;;;;;;56.88;23.95;;;;;;;;;;5026836;27;93632;-62
2023/12/03 00:34:15;;;;;;;63.47;23.08;;;;;;;;;;5025962;28;94532;-66
2023/12/03 00:36:42;;;;;;;52.58;22.88;;;;;;;;;;5026454;28;94649;-64
2023/12/03 00:39:08;;;;;;;64.50;23.27;;;;;;;;;;5021767;27;95922;-62
2023/12/03 00:41:34;;;;;;;57.60;24.17;;;;;;;;;;5021225;28;92712;-69
2023/12/03 00:44:01;;;;;;;54.70;22.67;;;;;;;;;;5025762;28;94213;-62
2023/12/03 00:46:27;;;;;;;58.95;23.48;;;;;;;;;;5020590;27;94416;-68
2023/12/03 00:48:53;;;;;;;56.20;23.00;;;;;;;;;;5018439;28;92549;-64
2023/12/03 00:51:20;;;;;;;55.35;23.27;;;;;;;;;;5022316;28;93560;-61
2023/12/03 00:53:46;;;;;;;55.53;21.70;;;;;;;;;;5020740;27;95008;-61
2023/12/03 00:56:13;;;;;;;55.70;23.27;;;;;;;;;;5026608;28;91872;-61
2023/12/03 00:58:39;;;;;;;59.17;23.10;;;;;;;;;;5019534;27;93408;-60
2023/12/03 01:01:05;;;;;;;55.60;23.15;;;;;;;;;;5022415;28;93695;-63
2023/12/03 01:03:32;;;;;;;58.22;22.40;;;;;;;;;;5018189;27;94868;-61
2023/12/03 01:05:58;;;;;;;52.47;22.27;;;;;;;;;;5022799;28;93460;-61
2023/12/03 01:08:25;;;;;;;49.78;22.55;;;;;;;;;;5022955;28;92860;-61
2023/12/03 01:10:51;;;;;;;58.60;24.17;;;;;;;;;;5025649;27;93188;-61
2023/12/03 01:13:17;;;;;;;62.75;24.33;;;;;;;;;;5020406;28;93441;-60
2023/12/03 01:15:44;;;;;;;58.45;23.23;;;;;;;;;;5023487;27;92510;-61
2023/12/03 01:18:11;;;;;;;49.85;22.52;;;;;;;;;;5027818;28;94274;-61
2023/12/03 01:20:38;;;;;;;53.38;22.95;;;;;;;;;;5024513;27;91878;-61
2023/12/03 01:23:05;;;;;;;61.13;24.52;;;;;;;;;;5022031;28;92531;-61
2023/12/03 01:25:31;;;;;;;55.28;23.45;;;;;;;;;;5022667;28;94446;-61
2023/12/03 01:27:57;;;;;;;62.35;25.67;;;;;;;;;;5022233;27;95229;-61
2023/12/03 01:30:24;;;;;;;51.17;23.33;;;;;;;;;;5022710;27;95932;-62
2023/12/03 01:32:50;;;;;;;52.75;23.33;;;;;;;;;;5023140;27;93528;-61
2023/12/03 01:35:17;;;;;;;56.80;24.13;;;;;;;;;;5020568;27;92887;-61
2023/12/03 01:37:44;;;;;;;57.92;23.73;;;;;;;;;;5023275;28;92448;-61
2023/12/03 01:40:11;;;;;;;49.53;24.17;;;;;;;;;;5022809;27;92420;-61
2023/12/03 01:42:38;;;;;;;52.53;23.92;;;;;;;;;;5019606;28;94217;-61
2023/12/03 01:45:04;;;;;;;66.20;25.13;;;;;;;;;;5025088;27;93731;-61
2023/12/03 01:47:31;;;;;;;56.95;24.77;;;;;;;;;;5020095;28;92630;-61
2023/12/03 01:50:04;;;;;;;54.85;24.80;;;;;;;;;;5025378;27;94183;-61
2023/12/03 01:52:30;;;;;;;60.30;25.48;;;;;;;;;;5016885;28;96978;-61
2023/12/03 01:54:57;;;;;;;55.42;23.90;;;;;;;;;;5022315;28;92430;-61
2023/12/03 01:57:23;;;;;;;58.67;24.88;;;;;;;;;;5025084;27;93239;-61
2023/12/03 01:59:51;;;;;;;59.50;25.65;;;;;;;;;;5021568;28;93630;-61
2023/12/03 02:02:17;;;;;;;65.70;25.77;;;;;;;;;;5024076;28;92670;-61
2023/12/03 02:04:43;;;;;;;58.63;25.13;;;;;;;;;;5017407;27;93428;-61
2023/12/03 02:07:10;;;;;;;67.00;26.58;;;;;;;;;;5018152;27;93771;-61
2023/12/03 02:09:37;;;;;;;60.63;25.38;;;;;;;;;;5023761;28;95525;-61
2023/12/03 02:12:03;;;;;;;60.75;25.80;;;;;;;;;;5017572;27;93395;-61
2023/12/03 02:14:29;;;;;;;64.32;26.90;;;;;;;;;;5022834;27;92554;-61
2023/12/03 02:16:56;;;;;;;55.13;25.90;;;;;;;;;;5017457;27;94983;-61
2023/12/03 02:19:22;;;;;;;63.30;26.23;;;;;;;;;;5022812;27;93403;-61
2023/12/03 02:21:48;;;;;;;55.08;24.73;;;;;;;;;;5017707;27;92524;-62
2023/12/03 02:24:15;;;;;;;57.20;25.50;;;;;;;;;;5016972;28;93397;-64
2023/12/03 02:26:41;;;;;;;62.38;25.83;;;;;;;;;;5024265;28;92486;-61
2023/12/03 02:29:07;;;;;;;59.47;26.13;;;;;;;;;;5025075;27;92509;-62
2023/12/03 02:31:34;;;;;;;58.75;26.00;;;;;;;;;;5022742;27;93371;-61
2023/12/03 02:34:03;;;;;;;58.42;25.45;;;;;;;;;;5020459;28;92072;-61
2023/12/03 02:36:29;;;;;;;58.00;25.08;;;;;;;;;;5020284;28;92849;-60
2023/12/03 02:38:56;;;;;;;52.45;24.58;;;;;;;;;;5020757;28;93206;-61
2023/12/03 02:41:22;;;;;;;52.88;24.17;;;;;;;;;;5011862;28;94945;-61
2023/12/03 02:43:49;;;;;;;51.13;24.52;;;;;;;;;;5027324;28;95665;-62
2023/12/03 02:46:15;;;;;;;55.60;24.95;;;;;;;;;;5017436;27;92467;-61
2023/12/03 02:48:41;;;;;;;51.05;24.30;;;;;;;;;;5020316;27;94276;-61
2023/12/03 02:51:08;;;;;;;53.92;25.15;;;;;;;;;;5020875;27;92521;-62
2023/12/03 02:53:35;;;;;;;45.67;22.42;;;;;;;;;;5022151;28;92650;-61
2023/12/03 02:56:02;;;;;;;49.25;23.23;;;;;;;;;;5024792;27;93187;-62
2023/12/03 02:58:28;;;;;;;49.08;24.35;;;;;;;;;;5020496;27;92701;-61
2023/12/03 03:00:54;;;;;;;48.65;24.85;;;;;;;;;;5020988;27;92494;-62
2023/12/03 03:03:21;;;;;;;45.28;22.92;;;;;;;;;;5020574;27;92908;-65
2023/12/03 03:05:47;;;;;;;51.08;24.85;;;;;;;;;;5021827;27;95813;-62
2023/12/03 03:08:13;;;;;;;44.67;22.75;;;;;;;;;;5023571;28;95533;-62
2023/12/03 03:10:40;;;;;;;42.63;22.63;;;;;;;;;;5020092;27;93381;-61
2023/12/03 03:13:08;;;;;;;45.25;22.98;;;;;;;;;;5018862;27;92621;-62
2023/12/03 03:15:35;;;;;;;39.72;22.50;;;;;;;;;;5022267;28;94354;-62
2023/12/03 03:18:01;;;;;;;42.15;23.08;;;;;;;;;;5023639;28;94221;-62
2023/12/03 03:20:28;;;;;;;47.05;23.30;;;;;;;;;;5018186;28;93092;-61
2023/12/03 03:22:54;;;;;;;42.17;23.55;;;;;;;;;;5019295;28;93175;-61
2023/12/03 03:25:20;;;;;;;42.50;23.77;;;;;;;;;;5019864;27;94365;-62
2023/12/03 03:27:46;;;;;;;38.78;22.17;;;;;;;;;;5025110;28;92531;-61
2023/12/03 03:30:13;;;;;;;36.00;21.70;;;;;;;;;;5017928;28;95858;-61
2023/12/03 03:32:39;;;;;;;38.83;23.63;;;;;;;;;;5023473;28;92475;-61
2023/12/03 03:35:06;;;;;;;36.97;22.55;;;;;;;;;;5017383;28;93110;-60
2023/12/03 03:37:32;;;;;;;37.58;23.52;;;;;;;;;;5019225;27;93405;-62
2023/12/03 03:39:59;;;;;;;49.83;25.17;;;;;;;;;;5015298;28;93280;-62
2023/12/03 03:42:25;;;;;;;45.47;25.30;;;;;;;;;;5023258;28;93558;-63
2023/12/03 03:44:51;;;;;;;44.40;25.50;;;;;;;;;;5019902;28;93425;-62
2023/12/03 03:47:18;;;;;;;36.58;23.98;;;;;;;;;;5022798;28;92352;-61
2023/12/03 03:49:44;;;;;;;39.78;24.95;;;;;;;;;;5023681;27;93499;-62
2023/12/03 03:52:10;;;;;;;40.10;24.33;;;;;;;;;;5020247;28;92489;-61
2023/12/03 03:54:42;;;;;;;44.42;26.23;;;;;;;;;;5019496;28;94768;-61
2023/12/03 03:57:09;;;;;;;43.75;25.48;;;;;;;;;;5019897;27;93656;-62
2023/12/03 03:59:35;;;;;;;39.38;24.05;;;;;;;;;;5017066;28;92888;-61
2023/12/03 04:02:02;;;;;;;39.22;24.30;;;;;;;;;;5021805;27;93212;-62
2023/12/03 04:04:28;;;;;;;38.92;23.85;;;;;;;;;;5018191;28;93423;-62
2023/12/03 04:06:55;;;;;;;38.60;23.75;;;;;;;;;;5021095;28;93001;-62
2023/12/03 04:09:21;;;;;;;39.33;24.70;;;;;;;;;;5020085;27;93187;-62
2023/12/03 04:11:47;;;;;;;41.15;24.77;;;;;;;;;;5021584;28;92605;-60
2023/12/03 04:14:15;;;;;;;42.42;25.20;;;;;;;;;;5016725;27;92589;-60
2023/12/03 04:16:41;;;;;;;36.65;23.80;;;;;;;;;;5019873;28;93433;-62
2023/12/03 04:19:08;;;;;;;39.35;22.10;;;;;;;;;;5021725;28;94990;-61
2023/12/03 04:21:36;;;;;;;33.05;21.00;;;;;;;;;;5021674;27;96676;-62
2023/12/03 04:24:03;;;;;;;33.75;20.20;;;;;;;;;;5020611;27;93636;-62
2023/12/03 04:26:29;;;;;;;31.75;20.45;;;;;;;;;;5020963;27;92463;-61
2023/12/03 04:28:56;;;;;;;33.67;20.67;;;;;;;;;;5019989;27;93736;-62
2023/12/03 04:31:23;;;;;;;36.40;20.98;;;;;;;;;;5023662;27;93445;-62
2023/12/03 04:33:50;;;;;;;34.50;20.83;;;;;;;;;;5021166;27;92551;-61
2023/12/03 04:36:17;;;;;;;30.08;19.73;;;;;;;;;;5021140;27;92708;-61
2023/12/03 04:38:44;;;;;;;37.30;19.88;;;;;;;;;;5021378;28;92360;-61
2023/12/03 04:41:10;;;;;;;33.50;18.70;;;;;;;;;;5023615;27;93284;-61
2023/12/03 04:43:36;;;;;;;31.52;18.98;;;;;;;;;;5018677;27;97024;-61
2023/12/03 04:46:03;;;;;;;32.42;19.23;;;;;;;;;;5023196;28;92619;-61
2023/12/03 04:48:30;;;;;;;28.10;17.85;;;;;;;;;;5019678;28;94600;-61
2023/12/03 04:50:57;;;;;;;28.92;18.30;;;;;;;;;;5020617;28;93422;-61
2023/12/03 04:53:24;;;;;;;31.75;18.67;;;;;;;;;;5013865;28;92670;-61
2023/12/03 04:55:50;;;;;;;29.77;18.67;;;;;;;;;;5020179;28;93744;-61
2023/12/03 04:58:17;;;;;;;27.52;17.95;;;;;;;;;;5019481;27;92404;-61
2023/12/03 05:00:43;;;;;;;28.30;17.48;;;;;;;;;;5022186;28;93164;-61
2023/12/03 05:03:09;;;;;;;31.60;18.05;;;;;;;;;;5021535;28;94388;-61
2023/12/03 05:05:36;;;;;;;32.88;18.17;;;;;;;;;;5021663;27;92466;-61
2023/12/03 05:08:02;;;;;;;31.55;18.38;;;;;;;;;;5020342;27;94852;-61
2023/12/03 05:10:31;;;;;;;31.17;17.63;;;;;;;;;;5015353;28;94452;-60
2023/12/03 05:12:58;;;;;;;30.65;18.30;;;;;;;;;;5019333;27;92502;-60
2023/12/03 05:15:24;;;;;;;34.85;18.63;;;;;;;;;;5022366;27;93148;-61
2023/12/03 05:17:50;;;;;;;31.05;18.50;;;;;;;;;;5024199;28;92390;-60
2023/12/03 05:20:17;;;;;;;31.02;17.75;;;;;;;;;;5023639;28;93109;-61
2023/12/03 05:22:43;;;;;;;36.50;18.25;;;;;;;;;;5023884;27;93419;-60
2023/12/03 05:25:10;;;;;;;31.92;17.85;;;;;;;;;;5025238;27;91802;-60
2023/12/03 05:27:36;;;;;;;30.45;16.52;;;;;;;;;;5022390;28;92547;-60
2023/12/03 05:30:03;;;;;;;31.77;18.50;;;;;;;;;;5021303;28;93719;-61
2023/12/03 05:32:30;;;;;;;29.40;17.58;;;;;;;;;;5017185;28;94848;-61
2023/12/03 05:34:56;;;;;;;33.00;17.98;;;;;;;;;;5021216;28;95535;-61
2023/12/03 05:37:23;;;;;;;33.17;17.90;;;;;;;;;;5026739;27;93573;-61
2023/12/03 05:39:49;;;;;;;29.30;17.15;;;;;;;;;;5023968;27;93472;-60
2023/12/03 05:42:15;;;;;;;29.80;17.60;;;;;;;;;;5023870;28;94705;-60
2023/12/03 05:44:42;;;;;;;29.05;16.58;;;;;;;;;;5019501;28;93961;-61
2023/12/03 05:47:08;;;;;;;30.55;18.83;;;;;;;;;;5021798;27;93244;-60
2023/12/03 05:49:37;;;;;;;40.92;18.20;;;;;;;;;;5022415;27;93800;-60
2023/12/03 05:52:04;;;;;;;34.50;18.70;;;;;;;;;;5016611;28;92623;-61
2023/12/03 05:54:30;;;;;;;25.98;17.27;;;;;;;;;;5019060;28;94005;-61
2023/12/03 05:56:57;;;;;;;29.13;18.27;;;;;;;;;;5020627;27;96843;-61
2023/12/03 05:59:23;;;;;;;35.15;18.08;;;;;;;;;;5025063;28;92528;-61
2023/12/03 06:01:50;;;;;;;32.67;17.35;;;;;;;;;;5022903;27;93476;-61
2023/12/03 06:04:16;;;;;;;32.47;17.33;;;;;;;;;;5023804;28;92445;-61
2023/12/03 06:06:42;;;;;;;33.30;17.88;;;;;;;;;;5020144;28;94139;-61
2023/12/03 06:09:09;;;;;;;32.78;18.38;;;;;;;;;;5020648;27;93635;-61
2023/12/03 06:11:35;;;;;;;37.85;19.00;;;;;;;;;;5020247;27;92444;-61
2023/12/03 06:14:02;;;;;;;39.08;18.55;;;;;;;;;;5016591;28;94312;-61
2023/12/03 06:16:28;;;;;;;36.03;19.23;;;;;;;;;;5024940;28;93488;-61
2023/12/03 06:18:55;;;;;;;30.40;17.08;;;;;;;;;;5021228;28;92491;-61
2023/12/03 06:21:22;;;;;;;30.35;17.27;;;;;;;;;;5023521;28;94977;-61
2023/12/03 06:23:48;;;;;;;34.42;17.75;;;;;;;;;;5019914;27;92587;-61
2023/12/03 06:26:15;;;;;;;35.47;18.50;;;;;;;;;;5022564;28;93090;-61
2023/12/03 06:28:41;;;;;;;36.28;18.30;;;;;;;;;;5016432;28;92431;-61
2023/12/03 06:31:08;;;;;;;29.23;17.92;;;;;;;;;;5019675;27;92498;-61
2023/12/03 06:33:34;;;;;;;36.10;18.95;;;;;;;;;;5021332;28;93248;-61
2023/12/03 06:36:00;;;;;;;36.78;17.80;;;;;;;;;;5026825;27;94059;-61
2023/12/03 06:38:27;;;;;;;34.42;18.52;;;;;;;;;;5022296;27;91884;-61
2023/12/03 06:40:53;;;;;;;40.35;19.67;;;;;;;;;;5027598;28;93841;-61
2023/12/03 06:43:19;;;;;;;38.97;19.45;;;;;;;;;;5023100;28;92507;-60
2023/12/03 06:45:46;;;;;;;37.90;20.30;;;;;;;;;;5018106;28;96218;-59
2023/12/03 06:48:12;;;;;;;39.20;20.00;;;;;;;;;;5016611;27;93436;-61
2023/12/03 06:50:39;;;;;;;41.78;19.88;;;;;;;;;;5017191;28;92725;-61
2023/12/03 06:53:05;;;;;;;40.25;19.92;;;;;;;;;;5024553;27;93217;-61
2023/12/03 06:55:31;;;;;;;40.72;20.83;;;;;;;;;;5018418;28;93281;-60
2023/12/03 06:57:58;;;;;;;39.88;19.52;;;;;;;;;;5022433;28;92466;-60
2023/12/03 07:00:24;;;;;;;43.15;20.73;;;;;;;;;;5022752;28;94281;-60
2023/12/03 07:02:51;;;;;;;41.17;20.77;;;;;;;;;;5021787;27;92716;-60
2023/12/03 07:05:18;;;;;;;39.03;18.83;;;;;;;;;;5020420;28;92473;-58
2023/12/03 07:07:48;;;;;;;40.13;19.90;;;;;;;;;;5024643;28;93460;-60
2023/12/03 07:10:15;;;;;;;41.03;20.30;;;;;;;;;;5018463;27;94904;-60
2023/12/03 07:12:41;;;;;;;42.60;19.77;;;;;;;;;;5023420;27;95500;-60
2023/12/03 07:15:08;;;;;;;42.58;21.40;;;;;;;;;;5020483;28;93392;-60
2023/12/03 07:17:34;;;;;;;42.40;19.77;;;;;;;;;;5017316;28;92587;-61
2023/12/03 07:20:00;;;;;;;38.03;20.10;;;;;;;;;;5022960;28;94215;-61
2023/12/03 07:22:27;;;;;;;43.05;20.50;;;;;;;;;;5019303;27;93476;-60
2023/12/03 07:24:53;;;;;;;43.67;20.98;;;;;;;;;;5022317;27;92571;-61
2023/12/03 07:27:19;;;;;;;43.83;21.40;;;;;;;;;;5021416;27;93754;-61
2023/12/03 07:29:46;;;;;;;47.85;22.95;;;;;;;;;;5014896;28;92625;-61
2023/12/03 07:32:12;;;;;;;43.13;21.52;;;;;;;;;;5023276;27;93237;-61
2023/12/03 07:34:39;;;;;;;47.08;22.30;;;;;;;;;;5018459;28;95762;-60
2023/12/03 07:37:05;;;;;;;48.15;21.77;;;;;;;;;;5017515;28;92386;-61
2023/12/03 07:39:31;;;;;;;50.45;23.40;;;;;;;;;;5022637;28;93172;-60
2023/12/03 07:41:57;;;;;;;43.22;22.08;;;;;;;;;;5016683;28;94750;-61
2023/12/03 07:44:24;;;;;;;49.00;22.35;;;;;;;;;;5019579;28;92824;-60
2023/12/03 07:46:52;;;;;;;47.63;23.27;;;;;;;;;;5027860;28;93234;-60
2023/12/03 07:49:18;;;;;;;46.60;22.15;;;;;;;;;;5016250;28;92569;-60
2023/12/03 07:51:47;;;;;;;44.13;21.67;;;;;;;;;;5018658;28;93082;-60
2023/12/03 07:54:14;;;;;;;45.40;22.73;;;;;;;;;;5017698;28;94495;-60
2023/12/03 07:56:41;;;;;;;52.33;23.02;;;;;;;;;;5019025;27;92784;-60
2023/12/03 07:59:08;;;;;;;47.40;23.83;;;;;;;;;;5015528;27;94839;-61
2023/12/03 08:01:34;;;;;;;48.65;22.48;;;;;;;;;;5022682;28;93431;-60
2023/12/03 08:04:01;;;;;;;52.78;22.58;;;;;;;;;;5015019;27;92825;-60
2023/12/03 08:06:27;;;;;;;47.03;22.77;;;;;;;;;;5016163;28;93222;-61
2023/12/03 08:08:54;;;;;;;47.90;22.90;;;;;;;;;;5024114;27;93424;-61
2023/12/03 08:11:20;;;;;;;48.00;22.38;;;;;;;;;;5015711;28;94541;-61
2023/12/03 08:13:47;;;;;;;44.63;21.85;;;;;;;;;;5021274;28;93429;-61
2023/12/03 08:16:13;;;;;;;47.85;21.73;;;;;;;;;;5020975;28;91635;-61
2023/12/03 08:18:39;;;;;;;53.33;21.90;;;;;;;;;;5023280;27;92615;-61
2023/12/03 08:21:06;;;;;;;50.30;21.80;;;;;;;;;;5019515;28;93386;-61
2023/12/03 08:23:32;;;;;;;42.65;21.38;;;;;;;;;;5014935;28;95219;-61
2023/12/03 08:25:59;;;;;;;49.28;22.02;;;;;;;;;;5018358;28;95497;-61
2023/12/03 08:28:25;;;;;;;52.22;22.27;;;;;;;;;;5018521;27;92468;-61
2023/12/03 08:30:51;;;;;;;51.63;21.92;;;;;;;;;;5020171;28;92456;-61
2023/12/03 08:33:18;;;;;;;44.10;21.27;;;;;;;;;;5019599;27;94542;-62
2023/12/03 08:35:44;;;;;;;43.75;20.80;;;;;;;;;;5025164;27;92377;-61
2023/12/03 08:38:10;;;;;;;41.53;19.33;;;;;;;;;;5023347;28;93185;-62
2023/12/03 08:40:37;;;;;;;44.35;20.80;;;;;;;;;;5021701;28;92700;-61
2023/12/03 08:43:03;;;;;;;49.63;21.13;;;;;;;;;;5026427;28;92520;-61
2023/12/03 08:45:30;;;;;;;42.03;20.95;;;;;;;;;;5025133;27;93126;-60
2023/12/03 08:47:56;;;;;;;47.25;21.73;;;;;;;;;;5023792;28;95808;-61
2023/12/03 08:50:27;;;;;;;50.72;22.15;;;;;;;;;;5027961;28;92644;-61
2023/12/03 08:52:54;;;;;;;45.03;21.27;;;;;;;;;;5023548;27;93260;-61
2023/12/03 08:55:20;;;;;;;45.40;22.60;;;;;;;;;;5023645;27;92513;-61
2023/12/03 08:57:47;;;;;;;46.78;21.63;;;;;;;;;;5025397;27;93736;-61
2023/12/03 09:00:15;;;;;;;48.80;21.75;;;;;;;;;;5021368;28;94468;-61
2023/12/03 09:02:45;;;;;;;43.63;20.83;;;;;;;;;;5015176;28;92589;-61
2023/12/03 09:05:12;;;;;;;41.85;21.98;;;;;;;;;;5012727;28;93294;-62
2023/12/03 09:07:39;;;;;;;48.30;22.75;;;;;;;;;;5017771;28;93880;-63
2023/12/03 09:10:06;;;;;;;46.88;21.63;;;;;;;;;;5017965;28;92944;-64
2023/12/03 09:12:32;;;;;;;41.30;21.02;;;;;;;;;;5022748;27;94939;-62
2023/12/03 09:14:59;;;;;;;48.20;22.77;;;;;;;;;;5024648;27;92553;-60
2023/12/03 09:17:28;;;;;;;44.30;21.20;;;;;;;;;;5020359;28;94218;-60
2023/12/03 09:19:55;;;;;;;42.90;21.45;;;;;;;;;;5022368;27;93601;-60
2023/12/03 09:22:21;;;;;;;45.88;22.02;;;;;;;;;;5023754;27;92850;-60
2023/12/03 09:24:48;;;;;;;39.83;19.02;;;;;;;;;;5022967;28;93168;-60
2023/12/03 09:27:15;;;;;;;49.72;20.70;;;;;;;;;;5024747;27;94464;-60
2023/12/03 09:29:42;;;;;;;44.50;21.13;;;;;;;;;;5022599;27;91790;-60
2023/12/03 09:32:08;;;;;;;45.30;22.20;;;;;;;;;;5022989;27;93766;-60
2023/12/03 09:34:35;;;;;;;40.60;19.70;;;;;;;;;;5027179;27;93530;-60
2023/12/03 09:37:01;;;;;;;38.90;19.35;;;;;;;;;;5022373;27;94913;-60
2023/12/03 09:39:28;;;;;;;37.88;19.83;;;;;;;;;;5018713;28;93381;-60
2023/12/03 09:41:56;;;;;;;37.40;18.42;;;;;;;;;;5020454;28;92480;-61
2023/12/03 09:44:34;;;;;;;36.72;18.45;;;;;;;;;;5024426;27;93248;-60
2023/12/03 09:47:02;;;;;;;37.70;19.27;;;;;;;;;;5021606;27;94417;-61
2023/12/03 09:49:29;;;;;;;37.45;18.65;;;;;;;;;;5024288;28;92416;-60
2023/12/03 09:51:59;;;;;;;43.63;19.25;;;;;;;;;;5024411;28;93160;-61
2023/12/03 09:54:25;;;;;;;36.67;18.05;;;;;;;;;;5023363;28;93738;-63
2023/12/03 09:56:53;;;;;;;36.17;18.30;;;;;;;;;;5027862;27;92631;-61
2023/12/03 09:59:19;;;;;;;34.42;18.10;;;;;;;;;;5018317;28;93729;-60
2023/12/03 10:01:46;;;;;;;39.00;18.63;;;;;;;;;;5023795;27;95044;-60
2023/12/03 10:04:12;;;;;;;38.65;18.88;;;;;;;;;;5018068;28;95560;-61
2023/12/03 10:06:42;;;;;;;36.72;17.45;;;;;;;;;;5022770;27;94404;-60
2023/12/03 10:09:10;;;;;;;37.45;18.65;;;;;;;;;;5022995;28;92824;-61
2023/12/03 10:11:41;;;;;;;40.30;17.88;;;;;;;;;;5020372;28;93178;-61
2023/12/03 10:14:08;;;;;;;30.38;16.23;;;;;;;;;;5022342;27;93736;-60
2023/12/03 10:16:35;;;;;;;34.28;16.75;;;;;;;;;;5022939;28;92440;-61
2023/12/03 10:19:02;;;;;;;29.27;16.25;;;;;;;;;;5023047;28;93019;-60
2023/12/03 10:21:28;;;;;;;35.78;17.35;;;;;;;;;;5021168;28;92855;-60
2023/12/03 10:23:58;;;;;;;31.30;15.82;;;;;;;;;;5022078;28;93139;-60
2023/12/03 10:26:25;;;;;;;30.60;15.35;;;;;;;;;;5016508;28;95822;-61
2023/12/03 10:28:52;;;;;;;33.60;16.42;;;;;;;;;;5024045;27;92437;-61
2023/12/03 10:31:19;;;;;;;32.85;15.40;;;;;;;;;;5021617;28;93286;-61
2023/12/03 10:33:45;;;;;;;25.20;15.20;;;;;;;;;;5019302;27;93456;-61
2023/12/03 10:36:12;;;;;;;33.80;15.63;;;;;;;;;;5022143;28;92787;-64
2023/12/03 10:38:40;;;;;;;29.88;14.75;;;;;;;;;;5023871;27;93186;-64
2023/12/03 10:41:07;;;;;;;31.92;16.55;;;;;;;;;;5019821;27;92430;-61
2023/12/03 10:43:37;;;;;;;29.17;15.20;;;;;;;;;;5020300;28;94265;-62
2023/12/03 10:46:13;;;;;;;33.88;17.60;;;;;;;;;;5018286;28;93567;-62
2023/12/03 10:48:40;;;;;;;33.38;15.02;;;;;;;;;;5021834;28;92582;-61
2023/12/03 10:51:10;;;;;;;28.35;15.25;;;;;;;;;;5020535;27;94927;-62
2023/12/03 10:53:37;;;;;;;25.88;13.65;;;;;;;;;;5021533;27;94390;-62
2023/12/03 10:56:05;;;;;;;28.00;14.73;;;;;;;;;;5016745;28;92687;-61
2023/12/03 10:58:38;;;;;;;31.25;15.52;;;;;;;;;;5016387;28;93268;-62
2023/12/03 11:01:19;;;;;;;31.52;15.70;;;;;;;;;;5022043;28;93408;-60
2023/12/03 11:03:51;;;;;;;31.83;16.20;;;;;;;;;;5016021;28;93070;-60
2023/12/03 11:06:17;;;;;;;27.95;15.30;;;;;;;;;;5017071;28;93444;-62
2023/12/03 11:08:45;;;;;;;31.23;16.23;;;;;;;;;;5020873;27;91785;-60
2023/12/03 11:11:12;;;;;;;27.90;15.15;;;;;;;;;;5024357;28;93489;-61
2023/12/03 11:13:39;;;;;;;27.80;14.10;;;;;;;;;;5021310;27;94390;-63
2023/12/03 11:16:13;;;;;;;32.00;16.45;;;;;;;;;;5014465;28;94926;-62
2023/12/03 11:18:42;;;;;;;30.67;15.75;;;;;;;;;;5014128;27;96838;-61
2023/12/03 11:21:33;;;;;;;36.97;15.70;;;;;;;;;;5019320;27;94463;-60
2023/12/03 11:24:17;;;;;;;29.00;15.20;;;;;;;;;;4984146;28;92907;-61
2023/12/03 11:26:45;;;;;;;35.42;16.63;;;;;;;;;;5021106;28;93558;-63
2023/12/03 11:29:11;;;;;;;26.52;14.20;;;;;;;;;;5024044;28;92942;-63
2023/12/03 11:31:38;;;;;;;27.73;13.90;;;;;;;;;;5021659;27;93340;-63
2023/12/03 11:34:05;;;;;;;27.52;13.48;;;;;;;;;;5021739;28;92671;-63
2023/12/03 11:36:41;;;;;;;26.33;14.00;;;;;;;;;;5020372;27;92434;-62
2023/12/03 11:39:08;;;;;;;29.55;14.70;;;;;;;;;;5018650;27;93599;-62
2023/12/03 11:41:37;;;;;;;31.77;14.35;;;;;;;;;;5016868;28;94985;-63
2023/12/03 11:44:16;;;;;;;24.85;13.73;;;;;;;;;;5020176;27;93162;-62
2023/12/03 11:46:49;;;;;;;28.70;14.45;;;;;;;;;;5022086;28;93220;-63
2023/12/03 11:49:18;;;;;;;27.58;13.95;;;;;;;;;;5018960;28;92975;-62
2023/12/03 11:51:46;;;;;;;25.92;13.95;;;;;;;;;;5020827;27;93181;-62
2023/12/03 11:54:20;;;;;;;25.13;13.85;;;;;;;;;;5022393;28;94259;-65
2023/12/03 11:56:46;;;;;;;28.52;14.68;;;;;;;;;;5017069;28;93720;-63
2023/12/03 11:59:14;;;;;;;26.90;14.20;;;;;;;;;;5020158;27;93083;-62
2023/12/03 12:01:40;;;;;;;26.05;13.70;;;;;;;;;;5020969;27;92458;-63
2023/12/03 12:04:06;;;;;;;27.63;14.57;;;;;;;;;;5022327;28;92761;-62
2023/12/03 12:06:34;;;;;;;25.42;13.63;;;;;;;;;;5015793;28;94840;-60
2023/12/03 12:09:04;;;;;;;32.80;14.57;;;;;;;;;;5021249;27;93448;-60
2023/12/03 12:11:31;;;;;;;30.67;14.30;;;;;;;;;;5018399;28;93291;-62
2023/12/03 12:13:58;;;;;;;29.83;14.82;;;;;;;;;;5019782;28;93361;-62
2023/12/03 12:16:24;;;;;;;27.95;14.05;;;;;;;;;;5020492;28;92451;-63
2023/12/03 12:18:51;;;;;;;32.17;13.73;;;;;;;;;;5020481;27;93236;-62
2023/12/03 12:21:17;;;;;;;27.15;13.25;;;;;;;;;;5019521;28;92864;-62
2023/12/03 12:23:44;;;;;;;27.48;13.73;;;;;;;;;;5020460;28;91823;-62
2023/12/03 12:26:10;;;;;;;31.58;14.00;;;;;;;;;;5021738;27;92625;-62
2023/12/03 12:28:37;;;;;;;28.83;13.98;;;;;;;;;;5019826;27;93825;-62
2023/12/03 12:31:04;;;;;;;25.88;13.80;;;;;;;;;;5020311;27;94840;-61
2023/12/03 12:33:30;;;;;;;25.48;14.50;;;;;;;;;;5020000;27;94493;-63
2023/12/03 12:36:01;;;;;;;30.33;15.60;;;;;;;;;;5023401;28;92734;-62
2023/12/03 12:38:27;;;;;;;33.20;17.85;;;;;;;;;;5022668;27;93264;-63
2023/12/03 12:40:55;;;;;;;27.60;13.85;;;;;;;;;;5019990;28;93543;-62
2023/12/03 12:43:24;;;;;;;34.20;16.92;;;;;;;;;;5017028;28;92558;-61
2023/12/03 12:45:50;;;;;;;30.58;15.73;;;;;;;;;;5015793;27;93512;-62
2023/12/03 12:48:24;;;;;;;27.70;14.63;;;;;;;;;;5022979;28;92722;-62
2023/12/03 12:50:52;;;;;;;26.83;13.30;;;;;;;;;;5017134;28;92705;-62
2023/12/03 12:53:19;;;;;;;27.35;14.63;;;;;;;;;;5019794;28;94501;-61
2023/12/03 12:55:45;;;;;;;31.00;14.70;;;;;;;;;;5021141;28;95140;-62
2023/12/03 12:58:11;;;;;;;29.50;13.27;;;;;;;;;;5019599;28;94598;-62
2023/12/03 13:00:38;;;;;;;25.70;13.93;;;;;;;;;;5021220;28;93418;-62
2023/12/03 13:03:04;;;;;;;23.52;12.80;;;;;;;;;;5018474;27;92538;-62
2023/12/03 13:05:30;;;;;;;26.50;14.27;;;;;;;;;;5021217;27;93542;-62
2023/12/03 13:07:57;;;;;;;25.08;13.15;;;;;;;;;;5019453;28;93574;-62
2023/12/03 13:10:23;;;;;;;24.35;12.90;;;;;;;;;;5023250;27;92420;-62
2023/12/03 13:12:50;;;;;;;23.13;12.85;;;;;;;;;;5020639;28;93187;-62
2023/12/03 13:15:17;;;;;;;23.70;12.80;;;;;;;;;;5015827;28;95757;-62
2023/12/03 13:17:51;;;;;;;25.27;12.93;;;;;;;;;;5022858;27;93328;-62
2023/12/03 13:20:17;;;;;;;23.20;12.23;;;;;;;;;;5021375;27;95776;-63
2023/12/03 13:22:45;;;;;;;27.52;14.50;;;;;;;;;;5022126;27;92878;-66
2023/12/03 13:25:12;;;;;;;23.38;12.20;;;;;;;;;;5018853;27;93207;-64
2023/12/03 13:27:39;;;;;;;26.63;13.85;;;;;;;;;;5023683;27;93441;-63
2023/12/03 13:30:05;;;;;;;23.90;13.48;;;;;;;;;;5022572;28;92523;-61
2023/12/03 13:32:32;;;;;;;27.58;13.70;;;;;;;;;;5018030;28;94390;-62
2023/12/03 13:34:59;;;;;;;23.13;12.95;;;;;;;;;;5024692;28;94503;-63
2023/12/03 13:37:32;;;;;;;24.20;12.70;;;;;;;;;;5025454;27;93183;-63
2023/12/03 13:39:58;;;;;;;24.77;12.82;;;;;;;;;;5022256;28;93361;-62
2023/12/03 13:42:24;;;;;;;24.27;12.85;;;;;;;;;;5023434;27;92432;-63
2023/12/03 13:44:51;;;;;;;25.27;13.60;;;;;;;;;;5011097;27;95102;-64
2023/12/03 13:47:17;;;;;;;23.48;12.35;;;;;;;;;;5020559;28;93274;-63
2023/12/03 13:49:44;;;;;;;24.20;12.60;;;;;;;;;;5025252;28;92585;-63
2023/12/03 13:52:10;;;;;;;28.05;14.00;;;;;;;;;;5021442;27;93530;-70
2023/12/03 13:54:38;;;;;;;26.58;13.65;;;;;;;;;;5020837;28;93274;-68
2023/12/03 13:57:04;;;;;;;33.78;15.77;;;;;;;;;;5028124;27;92967;-65
2023/12/03 13:59:30;;;;;;;21.75;12.65;;;;;;;;;;5020018;28;93422;-61
2023/12/03 14:01:57;;;;;;;30.25;13.60;;;;;;;;;;5019976;27;91999;-61
2023/12/03 14:04:23;;;;;;;29.48;12.38;;;;;;;;;;5022487;27;92403;-61
2023/12/03 14:06:50;;;;;;;24.70;12.50;;;;;;;;;;5019956;28;94566;-61
2023/12/03 14:09:16;;;;;;;21.08;11.90;;;;;;;;;;5018773;28;94804;-60
2023/12/03 14:11:43;;;;;;;19.75;10.82;;;;;;;;;;5023049;27;96633;-62
2023/12/03 14:14:10;;;;;;;21.67;11.55;;;;;;;;;;5021474;27;93573;-62